Time;durP1;ratioP1;P1;durP2;ratioP2;P2;SDS_P1;SDS_P2;PMS_P1;PMS_P2;Temp;Humidity;BMP_temperature;BMP_pressure;BME280_temperature;BME280_humidity;BME280_pressure;Samples;Min_cycle;Max_cycle;Signal;HPM_P1;HPM_P2
2024/01/06 00:02:05;;;;;;;1.97;1.87;;;4.80;99.90;;;;;;5040572;28;20218;-60
2024/01/06 00:04:33;;;;;;;1.73;1.63;;;4.70;99.90;;;;;;5041750;28;20195;-60
2024/01/06 00:07:04;;;;;;;1.27;1.17;;;4.80;99.90;;;;;;5046199;28;20257;-59
2024/01/06 00:09:31;;;;;;;0.97;0.87;;;;;;;;;;5052258;28;20210;-60
2024/01/06 00:11:58;;;;;;;1.57;1.00;;;;;;;;;;5054816;28;20764;-60
2024/01/06 00:14:26;;;;;;;1.00;0.90;;;4.20;99.90;;;;;;5044808;28;20236;-59
2024/01/06 00:16:52;;;;;;;1.83;1.30;;;4.50;99.90;;;;;;5042028;28;20205;-60
2024/01/06 00:19:20;;;;;;;1.43;1.30;;;;;;;;;;5045738;28;20203;-59
2024/01/06 00:21:48;;;;;;;1.37;1.27;;;;;;;;;;5054161;28;20290;-60
2024/01/06 00:24:15;;;;;;;0.83;0.73;;;4.60;99.90;;;;;;5054579;28;20225;-59
2024/01/06 00:26:42;;;;;;;1.63;1.00;;;4.60;99.90;;;;;;5054785;28;20243;-60
2024/01/06 00:29:09;;;;;;;1.80;1.13;;;;;;;;;;5042351;28;20208;-60
2024/01/06 00:31:37;;;;;;;1.07;0.93;;;;;;;;;;5045451;28;20278;-59
2024/01/06 00:34:04;;;;;;;1.00;0.90;;;;;;;;;;5054735;28;20274;-60
2024/01/06 00:36:31;;;;;;;1.33;1.23;;;;;;;;;;5053999;28;20206;-59
2024/01/06 00:39:00;;;;;;;1.47;0.80;;;;;;;;;;5054427;28;20859;-59
2024/01/06 00:41:27;;;;;;;1.53;1.40;;;4.50;99.90;;;;;;5047888;28;20552;-59
2024/01/06 00:43:54;;;;;;;0.60;0.60;;;;;;;;;;5044090;28;20220;-59
2024/01/06 00:46:21;;;;;;;0.50;0.50;;;;;;;;;;5034296;28;20618;-60
2024/01/06 00:48:48;;;;;;;0.70;0.70;;;4.60;99.90;;;;;;5034366;28;20240;-60
2024/01/06 00:51:15;;;;;;;0.80;0.80;;;;;;;;;;5032970;28;20266;-59
2024/01/06 00:53:43;;;;;;;1.70;1.60;;;;;;;;;;5032695;28;20292;-60
2024/01/06 00:56:11;;;;;;;1.93;1.67;;;4.50;99.90;;;;;;5044208;28;20208;-59
2024/01/06 00:58:38;;;;;;;1.60;1.50;;;4.50;99.90;;;;;;5037996;28;20198;-59
2024/01/06 01:01:05;;;;;;;1.50;1.40;;;4.60;99.90;;;;;;5033373;28;20898;-60
2024/01/06 01:03:32;;;;;;;2.20;2.00;;;4.60;99.90;;;;;;5034204;28;20645;-59
2024/01/06 01:05:59;;;;;;;3.53;2.73;;;;;;;;;;5033402;28;20270;-59
2024/01/06 01:08:26;;;;;;;5.10;4.53;;;4.40;99.90;;;;;;5039802;28;20260;-59
2024/01/06 01:10:53;;;;;;;5.23;4.73;;;4.60;99.90;;;;;;5049327;28;20250;-59
2024/01/06 01:13:21;;;;;;;9.50;8.60;;;4.70;99.90;;;;;;5035223;28;20274;-59
2024/01/06 01:15:49;;;;;;;10.83;9.83;;;4.70;99.90;;;;;;5033994;28;20274;-59
2024/01/06 01:18:16;;;;;;;9.70;8.70;;;4.60;99.90;;;;;;5033799;28;20210;-59
2024/01/06 01:20:43;;;;;;;9.23;8.30;;;4.70;99.90;;;;;;5038806;28;20265;-59
2024/01/06 01:23:10;;;;;;;8.67;7.80;;;4.70;99.90;;;;;;5051699;28;20784;-59
2024/01/06 01:25:37;;;;;;;6.23;5.50;;;4.60;99.90;;;;;;5052929;28;20265;-59
2024/01/06 01:28:04;;;;;;;6.20;4.80;;;4.60;99.90;;;;;;5029141;28;20251;-60
2024/01/06 01:30:33;;;;;;;3.53;3.30;;;4.60;99.90;;;;;;5014792;28;20257;-59
2024/01/06 01:33:00;;;;;;;3.20;2.90;;;4.70;99.90;;;;;;5040515;28;20315;-60
2024/01/06 01:35:27;;;;;;;2.30;2.20;;;4.60;99.90;;;;;;5045558;28;20200;-59
2024/01/06 01:37:54;;;;;;;2.63;2.00;;;4.60;99.90;;;;;;5053582;28;20681;-59
2024/01/06 01:40:21;;;;;;;1.87;1.77;;;4.60;99.90;;;;;;5037423;28;20254;-59
2024/01/06 01:42:48;;;;;;;0.63;0.63;;;4.50;99.90;;;;;;5045790;28;20748;-59
2024/01/06 01:45:15;;;;;;;1.20;1.20;;;4.60;99.90;;;;;;5040691;28;20200;-59
2024/01/06 01:47:45;;;;;;;1.10;1.00;;;4.50;99.90;;;;;;5047678;28;20196;-59
2024/01/06 01:50:13;;;;;;;1.20;1.20;;;4.50;99.90;;;;;;5048052;28;20554;-60
2024/01/06 01:52:42;;;;;;;1.10;1.10;;;4.50;99.90;;;;;;5047165;28;20264;-59
2024/01/06 01:55:09;;;;;;;0.80;0.80;;;4.40;99.90;;;;;;5053026;28;20220;-59
2024/01/06 01:57:37;;;;;;;0.40;0.40;;;;;;;;;;5045481;28;20226;-59
2024/01/06 02:00:04;;;;;;;1.70;0.70;;;4.40;99.90;;;;;;5043445;28;20203;-59
2024/01/06 02:02:32;;;;;;;0.87;0.30;;;4.40;99.90;;;;;;5034339;28;20283;-59
2024/01/06 02:05:01;;;;;;;1.23;0.70;;;4.50;99.90;;;;;;5032615;28;20205;-59
2024/01/06 02:07:28;;;;;;;0.60;0.60;;;4.30;99.90;;;;;;5030779;28;20735;-59
2024/01/06 02:09:55;;;;;;;0.63;0.40;;;4.40;99.90;;;;;;5039148;28;20209;-59
2024/01/06 02:12:22;;;;;;;0.50;0.50;;;4.40;99.90;;;;;;5042452;28;20207;-59
2024/01/06 02:14:49;;;;;;;2.10;0.40;;;4.40;99.90;;;;;;5052411;28;20287;-59
2024/01/06 02:17:15;;;;;;;0.30;0.30;;;4.50;99.90;;;;;;5044045;28;20679;-58
2024/01/06 02:19:43;;;;;;;0.30;0.30;;;4.40;99.90;;;;;;5045307;28;20206;-59
2024/01/06 02:22:11;;;;;;;0.30;0.30;;;4.30;99.90;;;;;;5044435;28;20204;-59
2024/01/06 02:24:38;;;;;;;1.23;0.80;;;4.40;99.90;;;;;;5046891;28;20199;-59
2024/01/06 02:27:05;;;;;;;0.30;0.30;;;4.50;99.90;;;;;;5046800;28;20199;-59
2024/01/06 02:29:32;;;;;;;0.27;0.27;;;4.50;99.90;;;;;;5021814;28;20207;-59
2024/01/06 02:32:03;;;;;;;1.03;0.20;;;4.50;99.90;;;;;;5013039;28;20208;-59
2024/01/06 02:34:32;;;;;;;0.20;0.20;;;;;;;;;;5030284;28;20224;-59
2024/01/06 02:37:03;;;;;;;0.20;0.20;;;;;;;;;;5044444;28;20202;-59
2024/01/06 02:39:31;;;;;;;0.20;0.10;;;;;;;;;;5043941;28;20249;-59
2024/01/06 02:41:58;;;;;;;0.27;0.27;;;4.30;99.90;;;;;;5033179;28;20199;-58
2024/01/06 02:44:25;;;;;;;0.30;0.30;;;4.40;99.90;;;;;;5032529;28;20218;-59
2024/01/06 02:46:54;;;;;;;0.00;0.00;;;4.40;99.90;;;;;;5038971;28;20199;-59
2024/01/06 02:49:21;;;;;;;0.10;0.10;;;;;;;;;;5037703;28;20215;-60
2024/01/06 02:51:48;;;;;;;0.10;0.10;;;4.30;99.90;;;;;;5040672;28;20209;-59
2024/01/06 02:54:15;;;;;;;0.13;0.10;;;4.30;99.90;;;;;;5050896;28;20268;-59
2024/01/06 02:56:43;;;;;;;0.17;0.17;;;4.30;99.90;;;;;;5052741;28;20236;-59
2024/01/06 02:59:10;;;;;;;0.10;0.10;;;4.40;99.90;;;;;;5040888;28;20209;-59
2024/01/06 03:01:37;;;;;;;0.20;0.20;;;4.30;99.90;;;;;;5043414;28;20205;-59
2024/01/06 03:04:04;;;;;;;0.20;0.20;;;4.30;99.90;;;;;;5052175;28;20225;-59
2024/01/06 03:06:31;;;;;;;0.10;0.10;;;4.40;99.90;;;;;;5052380;28;20600;-59
2024/01/06 03:08:58;;;;;;;0.10;0.10;;;4.30;99.90;;;;;;5052376;28;20610;-59
2024/01/06 03:11:25;;;;;;;0.10;0.10;;;4.10;99.90;;;;;;5042137;28;20626;-59
2024/01/06 03:13:53;;;;;;;0.10;0.10;;;4.20;99.90;;;;;;5044928;28;20232;-59
2024/01/06 03:16:20;;;;;;;0.17;0.10;;;4.10;99.90;;;;;;5052371;28;20212;-59
2024/01/06 03:18:48;;;;;;;0.17;0.10;;;4.20;99.90;;;;;;5052440;28;20209;-59
2024/01/06 03:21:19;;;;;;;0.03;0.00;;;4.20;99.90;;;;;;5051769;28;20201;-59
2024/01/06 03:23:46;;;;;;;0.30;0.20;;;4.10;99.90;;;;;;5045103;28;20228;-59
2024/01/06 03:26:13;;;;;;;0.20;0.00;;;4.30;99.90;;;;;;5042458;28;20240;-59
2024/01/06 03:28:40;;;;;;;0.00;0.00;;;4.20;99.90;;;;;;5054909;28;20679;-59
2024/01/06 03:31:09;;;;;;;0.10;0.10;;;;;;;;;;5035624;28;20204;-59
2024/01/06 03:33:36;;;;;;;0.10;0.00;;;;;;;;;;5031311;28;20270;-59
2024/01/06 03:36:06;;;;;;;0.93;0.00;;;4.10;99.90;;;;;;5030437;28;20290;-58
2024/01/06 03:38:34;;;;;;;0.10;0.10;;;4.10;99.90;;;;;;5043677;28;20288;-59
2024/01/06 03:41:01;;;;;;;0.10;0.10;;;4.10;99.90;;;;;;5039573;28;20256;-59
2024/01/06 03:43:28;;;;;;;0.10;0.10;;;4.10;99.90;;;;;;5031621;28;20651;-59
2024/01/06 03:45:56;;;;;;;0.67;0.10;;;4.00;99.90;;;;;;5030575;28;20252;-59
2024/01/06 03:48:24;;;;;;;0.00;0.00;;;4.00;99.90;;;;;;5044510;28;20208;-59
2024/01/06 03:50:51;;;;;;;0.10;0.10;;;4.00;99.90;;;;;;5030956;28;20224;-59
2024/01/06 03:53:18;;;;;;;0.00;0.00;;;4.00;99.90;;;;;;5026979;28;20701;-59
2024/01/06 03:55:45;;;;;;;0.00;0.00;;;4.00;99.90;;;;;;5035187;28;20967;-62
2024/01/06 03:58:13;;;;;;;0.20;0.20;;;4.10;99.90;;;;;;5051084;28;20204;-59
2024/01/06 04:00:40;;;;;;;0.13;0.10;;;4.00;99.90;;;;;;5050190;28;20254;-60
2024/01/06 04:03:08;;;;;;;0.10;0.10;;;4.80;99.90;;;;;;5041555;28;20270;-60
2024/01/06 04:05:37;;;;;;;0.30;0.20;;;;;;;;;;5043034;28;20583;-60
2024/01/06 04:08:04;;;;;;;0.00;0.00;;;;;;;;;;5038731;28;20206;-60
2024/01/06 04:10:31;;;;;;;0.10;0.10;;;4.00;99.90;;;;;;5039518;28;20218;-60
2024/01/06 04:12:58;;;;;;;0.00;0.00;;;3.90;99.90;;;;;;5028867;28;20224;-60
2024/01/06 04:15:25;;;;;;;2.17;0.00;;;4.10;99.90;;;;;;5033613;28;20225;-60
2024/01/06 04:17:53;;;;;;;0.40;0.10;;;4.20;99.90;;;;;;5040798;28;20643;-60
2024/01/06 04:20:20;;;;;;;0.00;0.00;;;4.00;99.90;;;;;;5050624;28;20199;-61
2024/01/06 04:22:48;;;;;;;0.10;0.10;;;4.00;99.90;;;;;;5042757;28;20228;-61
2024/01/06 04:25:15;;;;;;;0.00;0.00;;;4.00;99.90;;;;;;5041188;28;20196;-61
2024/01/06 04:27:42;;;;;;;0.10;0.10;;;4.00;99.90;;;;;;5035931;28;20204;-61
2024/01/06 04:30:11;;;;;;;0.00;0.00;;;4.00;99.90;;;;;;5042268;28;20207;-60
2024/01/06 04:32:38;;;;;;;0.00;0.00;;;4.00;99.90;;;;;;5051131;28;20297;-61
2024/01/06 04:35:05;;;;;;;0.00;0.00;;;4.10;99.90;;;;;;5051095;28;20573;-61
2024/01/06 04:37:32;;;;;;;0.10;0.10;;;4.00;99.90;;;;;;5040938;28;20203;-60
2024/01/06 04:40:01;;;;;;;0.10;0.10;;;4.10;99.90;;;;;;5041998;28;20277;-60
2024/01/06 04:42:28;;;;;;;0.07;0.07;;;4.00;99.90;;;;;;5031807;28;20732;-61
2024/01/06 04:44:55;;;;;;;0.10;0.10;;;4.10;99.90;;;;;;5029832;28;20263;-61
2024/01/06 04:47:22;;;;;;;0.10;0.10;;;4.00;99.90;;;;;;5034303;28;20613;-62
2024/01/06 04:49:48;;;;;;;1.90;0.10;;;4.00;99.90;;;;;;5033793;28;20220;-61
2024/01/06 04:52:15;;;;;;;0.00;0.00;;;4.10;99.90;;;;;;5034423;28;20226;-62
2024/01/06 04:54:42;;;;;;;0.10;0.10;;;4.20;99.90;;;;;;5034428;28;20220;-61
2024/01/06 04:57:11;;;;;;;0.00;0.00;;;4.10;99.90;;;;;;5034166;28;20263;-61
2024/01/06 04:59:38;;;;;;;0.10;0.10;;;4.10;99.90;;;;;;5033585;28;20209;-61
2024/01/06 05:02:05;;;;;;;0.20;0.20;;;4.10;99.90;;;;;;5040458;28;20248;-61
2024/01/06 05:04:32;;;;;;;1.07;0.20;;;4.10;99.90;;;;;;5034344;28;20620;-62
2024/01/06 05:07:03;;;;;;;0.50;0.37;;;4.00;99.90;;;;;;5034026;28;20213;-62
2024/01/06 05:09:30;;;;;;;0.30;0.13;;;4.10;99.90;;;;;;5033313;28;20207;-62
2024/01/06 05:11:57;;;;;;;0.20;0.20;;;4.00;99.90;;;;;;5034551;28;20208;-62
2024/01/06 05:14:26;;;;;;;0.20;0.20;;;4.00;99.90;;;;;;5032539;28;20289;-61
2024/01/06 05:16:53;;;;;;;0.20;0.20;;;4.10;99.90;;;;;;5033978;28;20200;-62
2024/01/06 05:19:21;;;;;;;1.17;0.50;;;4.10;99.90;;;;;;5033159;28;20560;-62
2024/01/06 05:21:48;;;;;;;5.43;2.27;;;4.10;99.90;;;;;;5033911;28;20209;-62
2024/01/06 05:24:15;;;;;;;16.10;6.83;;;4.10;99.90;;;;;;5035664;28;20228;-61
2024/01/06 05:26:42;;;;;;;14.27;6.73;;;4.00;99.90;;;;;;5040080;28;20198;-61
2024/01/06 05:29:09;;;;;;;8.50;4.30;;;4.10;99.90;;;;;;5033958;28;20207;-61
2024/01/06 05:31:37;;;;;;;2.63;1.80;;;4.10;99.90;;;;;;5036258;28;20203;-58
2024/01/06 05:34:05;;;;;;;2.23;1.40;;;4.10;99.90;;;;;;5030500;28;20625;-63
2024/01/06 05:36:32;;;;;;;1.27;0.60;;;4.10;99.90;;;;;;5033628;28;20218;-61
2024/01/06 05:39:00;;;;;;;2.20;0.90;;;;;;;;;;5035726;28;20212;-61
2024/01/06 05:41:27;;;;;;;0.73;0.73;;;;;;;;;;5024874;28;20202;-61
2024/01/06 05:43:54;;;;;;;1.10;0.70;;;;;;;;;;5031784;28;20277;-61
2024/01/06 05:46:22;;;;;;;0.80;0.60;;;4.00;99.90;;;;;;5033465;28;20273;-62
2024/01/06 05:48:51;;;;;;;0.53;0.53;;;4.10;99.90;;;;;;5030656;28;20212;-61
2024/01/06 05:51:18;;;;;;;0.47;0.40;;;4.10;99.90;;;;;;5031294;28;20208;-61
2024/01/06 05:53:48;;;;;;;0.87;0.87;;;4.20;99.90;;;;;;5033049;28;20225;-61
2024/01/06 05:56:24;;;;;;;0.50;0.20;;;;;;;;;;5032308;28;20219;-61
2024/01/06 05:58:51;;;;;;;0.30;0.30;;;;;;;;;;5033258;28;20239;-61
2024/01/06 06:01:18;;;;;;;0.20;0.20;;;3.90;99.90;;;;;;5032398;28;20208;-59
2024/01/06 06:03:45;;;;;;;0.20;0.20;;;;;;;;;;5032729;28;20222;-61
2024/01/06 06:06:14;;;;;;;3.70;0.30;;;;;;;;;;5026310;28;20263;-61
2024/01/06 06:08:42;;;;;;;0.30;0.30;;;4.10;99.90;;;;;;5033099;28;20200;-61
2024/01/06 06:11:11;;;;;;;0.57;0.40;;;4.10;99.90;;;;;;5039417;28;20271;-60
2024/01/06 06:13:39;;;;;;;0.40;0.40;;;4.00;99.90;;;;;;5032670;28;20252;-61
2024/01/06 06:16:06;;;;;;;0.30;0.30;;;4.10;99.90;;;;;;5032623;28;20275;-61
2024/01/06 06:18:33;;;;;;;0.77;0.60;;;4.10;99.90;;;;;;5030842;28;20203;-61
2024/01/06 06:21:00;;;;;;;0.40;0.40;;;4.00;99.90;;;;;;5031839;28;20680;-60
2024/01/06 06:23:29;;;;;;;0.47;0.47;;;4.00;99.90;;;;;;5024740;28;20214;-61
2024/01/06 06:25:56;;;;;;;0.90;0.90;;;;;;;;;;5040371;28;20291;-62
2024/01/06 06:28:23;;;;;;;0.97;0.90;;;;;;;;;;5033153;28;20203;-62
2024/01/06 06:30:51;;;;;;;1.07;0.90;;;;;;;;;;5031808;28;20204;-63
2024/01/06 06:33:18;;;;;;;2.20;0.70;;;4.00;99.90;;;;;;5032331;28;20224;-62
2024/01/06 06:35:45;;;;;;;1.13;1.00;;;;;;;;;;5040459;28;20660;-62
2024/01/06 06:38:12;;;;;;;2.70;1.60;;;4.00;99.90;;;;;;5042776;28;20253;-62
2024/01/06 06:40:40;;;;;;;1.70;1.57;;;4.10;99.90;;;;;;5031128;28;20725;-64
2024/01/06 06:43:08;;;;;;;5.50;3.00;;;4.10;99.90;;;;;;5033037;28;20232;-61
2024/01/06 06:45:35;;;;;;;4.03;3.23;;;4.10;99.90;;;;;;5031468;28;20282;-63
2024/01/06 06:48:02;;;;;;;3.87;2.57;;;4.00;99.90;;;;;;5032555;28;20204;-62
2024/01/06 06:50:29;;;;;;;3.80;3.40;;;4.00;99.90;;;;;;5023811;28;20194;-63
2024/01/06 06:52:56;;;;;;;3.33;2.53;;;4.00;99.90;;;;;;5032191;28;20744;-62
2024/01/06 06:55:23;;;;;;;2.07;1.90;;;3.90;99.90;;;;;;5031987;28;20707;-61
2024/01/06 06:57:51;;;;;;;2.83;2.63;;;3.90;99.90;;;;;;5025664;28;20232;-61
2024/01/06 07:00:19;;;;;;;1.63;1.60;;;4.00;99.90;;;;;;5031562;28;20209;-61
2024/01/06 07:02:46;;;;;;;1.60;1.23;;;3.80;99.90;;;;;;5032006;28;20721;-61
2024/01/06 07:05:13;;;;;;;1.67;1.57;;;3.80;99.90;;;;;;5032213;28;20637;-64
2024/01/06 07:07:39;;;;;;;1.27;1.23;;;3.90;99.90;;;;;;5031314;28;20205;-62
2024/01/06 07:10:08;;;;;;;1.67;1.57;;;4.00;99.90;;;;;;5036901;28;20643;-61
2024/01/06 07:12:35;;;;;;;1.23;1.23;;;4.00;99.90;;;;;;5031722;28;20282;-62
2024/01/06 07:15:04;;;;;;;57.70;25.73;;;4.10;99.90;;;;;;5027562;28;20286;-62
2024/01/06 07:17:31;;;;;;;16.43;8.50;;;3.90;99.90;;;;;;5024820;28;20212;-62
2024/01/06 07:19:58;;;;;;;3.30;2.60;;;4.00;99.90;;;;;;5030121;28;20407;-61
2024/01/06 07:22:25;;;;;;;2.30;2.07;;;4.10;99.90;;;;;;5028877;28;20294;-61
2024/01/06 07:24:52;;;;;;;1.60;1.50;;;3.90;99.90;;;;;;5031029;28;20201;-61
2024/01/06 07:27:19;;;;;;;2.80;2.50;;;3.80;99.90;;;;;;5031834;28;20209;-61
2024/01/06 07:29:46;;;;;;;1.53;1.43;;;3.90;99.90;;;;;;5031642;28;20652;-62
2024/01/06 07:32:15;;;;;;;0.80;0.77;;;;;;;;;;5031132;28;20289;-61
2024/01/06 07:34:43;;;;;;;3.73;1.80;;;;;;;;;;5030969;28;20211;-62
2024/01/06 07:37:10;;;;;;;5.33;4.43;;;3.80;99.90;;;;;;5030884;28;20231;-61
2024/01/06 07:39:37;;;;;;;6.67;5.00;;;3.90;99.90;;;;;;5029678;28;20567;-61
2024/01/06 07:42:04;;;;;;;2.43;2.00;;;3.80;99.90;;;;;;5031047;28;20259;-61
2024/01/06 07:44:30;;;;;;;2.63;2.50;;;3.80;99.90;;;;;;5030929;28;20225;-61
2024/01/06 07:46:57;;;;;;;2.43;2.23;;;4.00;99.90;;;;;;5030520;28;20558;-62
2024/01/06 07:49:26;;;;;;;1.77;1.67;;;3.90;99.90;;;;;;5029946;28;20213;-61
2024/01/06 07:51:53;;;;;;;4.00;3.70;;;4.00;99.90;;;;;;5030661;28;20206;-61
2024/01/06 07:54:20;;;;;;;10.67;8.47;;;3.90;99.90;;;;;;5030093;28;20229;-61
2024/01/06 07:56:47;;;;;;;5.10;4.60;;;4.00;99.90;;;;;;5030912;28;20229;-61
2024/01/06 07:59:14;;;;;;;6.17;5.20;;;4.00;99.90;;;;;;5030840;28;20230;-61
2024/01/06 08:01:42;;;;;;;5.47;4.97;;;4.00;99.90;;;;;;5030786;28;20269;-61
2024/01/06 08:04:09;;;;;;;4.17;3.53;;;3.90;99.90;;;;;;5032796;28;20732;-61
2024/01/06 08:06:38;;;;;;;3.53;3.20;;;4.10;99.90;;;;;;5030635;28;20335;-62
2024/01/06 08:09:05;;;;;;;3.37;3.00;;;3.90;99.90;;;;;;5030253;28;20216;-61
2024/01/06 08:11:32;;;;;;;4.10;3.63;;;3.80;99.90;;;;;;5029907;28;20213;-61
2024/01/06 08:13:59;;;;;;;5.53;5.13;;;3.90;99.90;;;;;;5030586;28;20705;-61
2024/01/06 08:16:26;;;;;;;3.77;3.47;;;4.00;99.90;;;;;;5027514;28;20273;-61
2024/01/06 08:18:53;;;;;;;2.20;2.10;;;3.90;99.90;;;;;;5033128;28;20583;-61
2024/01/06 08:21:21;;;;;;;1.80;1.70;;;;;;;;;;5033028;28;20206;-62
2024/01/06 08:23:49;;;;;;;1.73;1.63;;;;;;;;;;5031600;28;20925;-62
2024/01/06 08:26:17;;;;;;;1.13;1.13;;;;;;;;;;5034228;28;20607;-62
2024/01/06 08:28:43;;;;;;;1.97;1.90;;;4.00;99.90;;;;;;5031650;28;20206;-61
2024/01/06 08:31:10;;;;;;;2.50;2.40;;;4.10;99.90;;;;;;5033490;28;20247;-61
2024/01/06 08:33:37;;;;;;;2.30;2.20;;;4.10;99.90;;;;;;5033718;28;20220;-61
2024/01/06 08:36:06;;;;;;;2.50;2.30;;;4.10;99.90;;;;;;5033954;28;20778;-61
2024/01/06 08:38:33;;;;;;;2.57;2.47;;;4.10;99.90;;;;;;5031204;28;20208;-61
2024/01/06 08:41:01;;;;;;;3.80;3.53;;;4.10;99.90;;;;;;5033381;28;20233;-61
2024/01/06 08:43:28;;;;;;;4.07;3.77;;;4.10;99.90;;;;;;5033737;28;20228;-61
2024/01/06 08:45:56;;;;;;;4.00;3.63;;;;;;;;;;5033912;28;20203;-61
2024/01/06 08:48:23;;;;;;;7.20;5.37;;;4.10;99.90;;;;;;5033756;28;20230;-61
2024/01/06 08:50:50;;;;;;;7.63;6.87;;;4.10;99.90;;;;;;5033139;28;20204;-62
2024/01/06 08:53:17;;;;;;;17.13;11.63;;;4.30;99.90;;;;;;5033397;28;20233;-61
2024/01/06 08:55:44;;;;;;;13.77;10.13;;;4.20;99.90;;;;;;5033373;28;20262;-61
2024/01/06 08:58:13;;;;;;;18.33;12.17;;;4.20;99.90;;;;;;5029598;28;20201;-61
2024/01/06 09:00:40;;;;;;;17.80;13.30;;;4.20;99.90;;;;;;5033058;28;20202;-61
2024/01/06 09:03:07;;;;;;;18.10;13.23;;;4.20;99.90;;;;;;5032977;28;20224;-62
2024/01/06 09:05:34;;;;;;;15.00;11.93;;;4.30;99.90;;;;;;5030721;28;20248;-61
2024/01/06 09:08:01;;;;;;;14.43;11.27;;;4.30;99.90;;;;;;5033645;28;20279;-61
2024/01/06 09:10:28;;;;;;;14.77;10.17;;;4.50;99.90;;;;;;5037085;28;20198;-62
2024/01/06 09:12:56;;;;;;;12.60;9.27;;;4.30;99.90;;;;;;5033249;28;20251;-61
2024/01/06 09:15:24;;;;;;;8.60;7.50;;;4.40;99.90;;;;;;5034277;28;20200;-61
2024/01/06 09:17:51;;;;;;;8.83;7.70;;;4.40;99.90;;;;;;5031958;28;20277;-62
2024/01/06 09:20:22;;;;;;;8.30;7.53;;;4.40;99.90;;;;;;5032947;28;20206;-63
2024/01/06 09:22:49;;;;;;;8.20;5.47;;;4.50;99.90;;;;;;5033205;28;20747;-62
2024/01/06 09:25:16;;;;;;;7.13;6.37;;;4.70;99.90;;;;;;5031458;28;20247;-63
2024/01/06 09:27:43;;;;;;;6.33;5.67;;;4.70;99.90;;;;;;5033940;28;20247;-62
2024/01/06 09:30:11;;;;;;;3.43;3.23;;;4.70;99.90;;;;;;5031783;28;20388;-62
2024/01/06 09:32:39;;;;;;;3.13;2.73;;;4.70;99.90;;;;;;5034291;28;20217;-62
2024/01/06 09:35:07;;;;;;;2.27;2.17;;;4.70;99.90;;;;;;5030748;28;20199;-62
2024/01/06 09:37:34;;;;;;;4.70;2.47;;;;;;;;;;5033619;28;20571;-62
2024/01/06 09:40:01;;;;;;;3.30;1.70;;;4.70;99.90;;;;;;5032451;28;20201;-62
2024/01/06 09:42:28;;;;;;;1.90;1.80;;;;;;;;;;5032592;28;20204;-61
2024/01/06 09:44:56;;;;;;;2.20;2.10;;;4.70;99.90;;;;;;5033005;28;20201;-62
2024/01/06 09:47:24;;;;;;;3.07;2.40;;;4.80;99.90;;;;;;5033307;28;20641;-62
2024/01/06 09:49:56;;;;;;;1.83;1.73;;;5.90;99.90;;;;;;5032147;28;20236;-62
2024/01/06 09:52:24;;;;;;;2.00;1.90;;;;;;;;;;5032995;28;20258;-63
2024/01/06 09:54:54;;;;;;;3.87;3.60;;;4.90;99.90;;;;;;5030564;28;20263;-62
2024/01/06 09:57:22;;;;;;;7.70;6.73;;;;;;;;;;5033146;28;20719;-62
2024/01/06 09:59:49;;;;;;;6.73;4.17;;;4.90;99.90;;;;;;5027157;28;20208;-62
2024/01/06 10:02:16;;;;;;;5.23;4.43;;;;;;;;;;5033156;28;20207;-62
2024/01/06 10:04:44;;;;;;;2.90;2.70;;;4.30;99.90;;;;;;5033279;28;20292;-63
2024/01/06 10:07:13;;;;;;;2.23;2.13;;;5.00;99.90;;;;;;5032955;28;20571;-60
2024/01/06 10:09:41;;;;;;;1.90;1.80;;;5.00;99.90;;;;;;5029532;28;20209;-61
2024/01/06 10:12:09;;;;;;;2.40;2.30;;;5.00;99.90;;;;;;5032581;28;20291;-61
2024/01/06 10:14:36;;;;;;;3.13;2.83;;;4.80;99.90;;;;;;5032434;28;20198;-61
2024/01/06 10:17:11;;;;;;;2.63;2.43;;;4.90;99.90;;;;;;5026109;28;20249;-61
2024/01/06 10:19:38;;;;;;;4.37;2.73;;;4.90;99.90;;;;;;5024674;28;20204;-61
2024/01/06 10:22:08;;;;;;;2.20;2.00;;;4.90;99.90;;;;;;5031671;28;20410;-61
2024/01/06 10:24:39;;;;;;;15.43;10.53;;;4.80;99.90;;;;;;5027282;28;20205;-61
2024/01/06 10:27:10;;;;;;;9.47;6.93;;;4.90;99.90;;;;;;5033507;28;20255;-61
2024/01/06 10:29:38;;;;;;;9.97;6.43;;;5.00;99.90;;;;;;5027897;28;20715;-61
2024/01/06 10:32:06;;;;;;;2.00;1.90;;;4.90;99.90;;;;;;5028943;28;20208;-61
2024/01/06 10:34:34;;;;;;;3.20;2.97;;;4.80;99.90;;;;;;5025505;28;20221;-61
2024/01/06 10:37:03;;;;;;;1.70;1.67;;;4.40;99.90;;;;;;5033025;28;20225;-61
2024/01/06 10:39:30;;;;;;;5.20;4.60;;;4.80;99.90;;;;;;5029491;28;20267;-61
2024/01/06 10:41:59;;;;;;;8.40;4.83;;;4.90;99.90;;;;;;5028664;28;20206;-61
2024/01/06 10:44:27;;;;;;;4.50;2.57;;;4.70;99.90;;;;;;5032154;28;20719;-61
2024/01/06 10:46:55;;;;;;;6.53;4.87;;;4.80;99.90;;;;;;5030821;28;20212;-61
2024/01/06 10:49:24;;;;;;;1.43;1.43;;;4.80;99.90;;;;;;5023972;28;20204;-65
2024/01/06 10:51:54;;;;;;;4.07;3.07;;;4.80;99.90;;;;;;5037482;28;20233;-61
2024/01/06 10:54:22;;;;;;;1.73;1.63;;;4.90;99.90;;;;;;5028921;28;20225;-62
2024/01/06 10:56:52;;;;;;;5.23;2.70;;;4.80;99.90;;;;;;5040433;28;20637;-61
2024/01/06 10:59:24;;;;;;;1.87;1.77;;;4.70;99.90;;;;;;5034342;28;20200;-63
2024/01/06 11:01:53;;;;;;;2.93;2.73;;;4.60;99.90;;;;;;5032286;28;20204;-61
2024/01/06 11:04:22;;;;;;;8.17;6.23;;;4.70;99.90;;;;;;5030493;28;20224;-62
2024/01/06 11:06:49;;;;;;;2.93;2.63;;;4.80;99.90;;;;;;5037171;28;20205;-62
2024/01/06 11:09:23;;;;;;;25.87;17.13;;;4.80;99.90;;;;;;5031889;28;20280;-63
2024/01/06 11:11:51;;;;;;;14.47;9.80;;;4.90;99.90;;;;;;5031700;28;20208;-62
2024/01/06 11:14:21;;;;;;;3.30;3.07;;;5.00;99.90;;;;;;5030851;28;20220;-62
2024/01/06 11:16:48;;;;;;;1.93;1.93;;;5.20;99.90;;;;;;5036212;28;20226;-62
2024/01/06 11:19:44;;;;;;;2.70;2.57;;;5.20;99.90;;;;;;5033293;28;20604;-61
2024/01/06 11:22:29;;;;;;;1.60;1.50;;;5.20;99.90;;;;;;5030160;28;20210;-61
2024/01/06 11:24:58;;;;;;;6.80;5.77;;;5.20;99.90;;;;;;5036445;28;20389;-66
2024/01/06 11:27:28;;;;;;;3.63;3.40;;;5.20;99.90;;;;;;5043934;28;20199;-62
2024/01/06 11:29:57;;;;;;;6.10;4.30;;;5.30;99.90;;;;;;5051275;28;20598;-61
2024/01/06 11:32:29;;;;;;;8.43;6.60;;;5.30;99.90;;;;;;5052918;28;20216;-62
2024/01/06 11:35:05;;;;;;;4.23;3.87;;;5.30;99.90;;;;;;5042606;28;20230;-62
2024/01/06 11:37:37;;;;;;;3.53;2.80;;;5.40;99.90;;;;;;5027773;28;20226;-62
2024/01/06 11:40:05;;;;;;;2.10;2.00;;;5.40;99.90;;;;;;5033055;28;20635;-62
2024/01/06 11:42:36;;;;;;;2.33;2.23;;;5.30;99.90;;;;;;5030055;28;20284;-62
2024/01/06 11:45:06;;;;;;;72.73;50.77;;;5.30;99.90;;;;;;5027309;28;20242;-62
2024/01/06 11:47:33;;;;;;;7.40;6.63;;;5.30;99.90;;;;;;5031491;28;20287;-62
2024/01/06 11:50:04;;;;;;;1.50;1.40;;;5.40;99.90;;;;;;5030418;28;20742;-62
2024/01/06 11:52:31;;;;;;;2.30;2.10;;;5.30;99.90;;;;;;5031776;28;20239;-62
2024/01/06 11:54:59;;;;;;;1.70;1.60;;;5.50;99.90;;;;;;5035916;28;20204;-61
2024/01/06 11:57:26;;;;;;;1.37;1.27;;;5.50;99.90;;;;;;5033001;28;20767;-66
2024/01/06 11:59:54;;;;;;;1.00;1.00;;;5.40;99.90;;;;;;5043363;28;20206;-66
2024/01/06 12:02:23;;;;;;;23.53;13.63;;;5.30;99.90;;;;;;5034745;28;20229;-66
2024/01/06 12:04:51;;;;;;;11.90;8.53;;;5.30;99.90;;;;;;5032703;28;20241;-65
2024/01/06 12:07:19;;;;;;;9.90;6.40;;;5.30;99.90;;;;;;5032650;28;20283;-66
2024/01/06 12:09:47;;;;;;;2.97;1.60;;;5.40;99.90;;;;;;5030291;28;20731;-65
2024/01/06 12:12:16;;;;;;;1.93;1.50;;;5.20;99.90;;;;;;5032098;28;20280;-67
2024/01/06 12:14:43;;;;;;;2.17;1.93;;;5.30;99.90;;;;;;5033094;28;20586;-66
2024/01/06 12:17:12;;;;;;;1.67;1.40;;;5.20;99.90;;;;;;5034675;28;20224;-65
2024/01/06 12:19:42;;;;;;;2.17;1.57;;;5.20;99.90;;;;;;5035640;28;20647;-63
2024/01/06 12:22:11;;;;;;;2.20;0.90;;;;;;;;;;5038688;28;20200;-65
2024/01/06 12:24:38;;;;;;;2.43;0.63;;;5.40;99.90;;;;;;5031381;28;22000;-73
2024/01/06 12:27:11;;;;;;;2.10;0.60;;;5.40;99.90;;;;;;5033368;28;20206;-66
2024/01/06 12:29:42;;;;;;;3.27;1.03;;;5.50;99.90;;;;;;5034857;28;20304;-68
2024/01/06 12:32:13;;;;;;;13.83;10.30;;;5.30;99.90;;;;;;5032755;28;20206;-68
2024/01/06 12:34:41;;;;;;;9.83;4.60;;;5.40;99.90;;;;;;5025662;28;20208;-61
2024/01/06 12:37:08;;;;;;;2.80;2.60;;;5.40;99.90;;;;;;5032330;28;20213;-67
2024/01/06 12:39:35;;;;;;;2.47;1.37;;;5.50;99.90;;;;;;5032906;28;20203;-63
2024/01/06 12:42:07;;;;;;;1.50;0.90;;;5.50;99.90;;;;;;5031548;28;20203;-63
2024/01/06 12:44:36;;;;;;;2.43;0.90;;;5.80;99.90;;;;;;5029667;28;20260;-61
2024/01/06 12:47:07;;;;;;;2.23;0.93;;;5.50;99.90;;;;;;5034013;28;20197;-64
2024/01/06 12:49:34;;;;;;;2.03;1.10;;;5.50;99.90;;;;;;5037557;28;20288;-62
2024/01/06 12:52:02;;;;;;;1.63;1.07;;;5.50;99.90;;;;;;5034325;28;22274;-67
2024/01/06 12:54:29;;;;;;;2.13;0.97;;;5.50;99.90;;;;;;5032694;28;20224;-66
2024/01/06 12:56:56;;;;;;;1.53;1.43;;;5.50;99.90;;;;;;5034762;28;20259;-70
2024/01/06 12:59:23;;;;;;;1.87;1.77;;;;;;;;;;5033355;28;20569;-71
2024/01/06 13:01:50;;;;;;;1.90;1.73;;;5.20;99.90;;;;;;5027952;28;20208;-72
2024/01/06 13:04:18;;;;;;;1.73;1.63;;;5.20;99.90;;;;;;5028301;28;20311;-67
2024/01/06 13:06:45;;;;;;;2.40;2.20;;;5.20;99.90;;;;;;5035436;28;20205;-67
2024/01/06 13:09:16;;;;;;;4.43;2.57;;;5.00;99.90;;;;;;5031996;28;20680;-64
2024/01/06 13:11:45;;;;;;;5.90;3.27;;;5.10;99.90;;;;;;5033279;28;20254;-64
2024/01/06 13:14:13;;;;;;;4.27;3.00;;;;;;;;;;5028728;28;20224;-63